Time;durP1;ratioP1;P1;durP2;ratioP2;P2;SDS_P1;SDS_P2;PMS_P1;PMS_P2;Temp;Humidity;BMP_temperature;BMP_pressure;BME280_temperature;BME280_humidity;BME280_pressure;Samples;Min_cycle;Max_cycle;Signal;HPM_P1;HPM_P2
2022/07/18 00:02:05;;;;;;;0.80;0.80;;;24.40;62.70;;;;;;5088393;27;43912;-70
2022/07/18 00:04:33;;;;;;;1.00;1.00;;;24.60;62.30;;;;;;5070203;27;44009;-69
2022/07/18 00:07:01;;;;;;;0.80;0.80;;;24.70;61.90;;;;;;5088806;27;43939;-69
2022/07/18 00:09:29;;;;;;;1.00;1.00;;;24.80;61.40;;;;;;5088308;27;44037;-69
2022/07/18 00:12:03;;;;;;;1.00;1.00;;;24.90;61.20;;;;;;5088479;27;43949;-69
2022/07/18 00:14:31;;;;;;;0.83;0.83;;;25.00;60.80;;;;;;5088618;27;44009;-69
2022/07/18 00:16:59;;;;;;;1.00;1.00;;;25.20;60.60;;;;;;5088939;27;44007;-70
2022/07/18 00:19:29;;;;;;;0.90;0.90;;;25.20;61.00;;;;;;5088022;27;43943;-71
2022/07/18 00:21:57;;;;;;;0.73;0.73;;;25.20;60.20;;;;;;5088105;27;44091;-69
2022/07/18 00:24:25;;;;;;;0.87;0.87;;;25.10;60.50;;;;;;5088418;27;43936;-70
2022/07/18 00:26:53;;;;;;;0.83;0.83;;;24.90;60.60;;;;;;5088699;27;44055;-69
2022/07/18 00:29:21;;;;;;;0.80;0.80;;;24.80;60.90;;;;;;5088169;27;43890;-69
2022/07/18 00:31:49;;;;;;;0.80;0.80;;;24.60;61.20;;;;;;5087920;27;43988;-69
2022/07/18 00:34:17;;;;;;;0.83;0.83;;;24.50;61.30;;;;;;5073195;27;43979;-69
2022/07/18 00:36:47;;;;;;;0.70;0.70;;;24.40;61.50;;;;;;5108168;27;43523;-70
2022/07/18 00:39:15;;;;;;;0.70;0.70;;;24.30;61.70;;;;;;5107627;27;43856;-70
2022/07/18 00:41:46;;;;;;;0.90;0.90;;;24.30;62.00;;;;;;5106919;27;43889;-68
2022/07/18 00:44:18;;;;;;;0.83;0.83;;;24.20;62.00;;;;;;5107623;27;44000;-69
2022/07/18 00:46:46;;;;;;;0.90;0.90;;;24.20;62.20;;;;;;5107953;27;44038;-70
2022/07/18 00:49:14;;;;;;;0.83;0.83;;;24.10;62.30;;;;;;5107422;27;44323;-70
2022/07/18 00:51:42;;;;;;;0.80;0.80;;;24.10;62.90;;;;;;5107535;27;43981;-70
2022/07/18 00:54:11;;;;;;;0.97;0.97;;;24.00;63.60;;;;;;5107599;27;43917;-69
2022/07/18 00:56:39;;;;;;;0.90;0.90;;;24.10;63.80;;;;;;5107923;27;44032;-69
2022/07/18 00:59:07;;;;;;;0.93;0.93;;;24.20;63.60;;;;;;5107571;27;45000;-70
2022/07/18 01:01:43;;;;;;;0.77;0.77;;;24.30;63.20;;;;;;5107350;27;43979;-70
2022/07/18 01:04:12;;;;;;;0.73;0.73;;;24.40;62.80;;;;;;5107369;27;43398;-69
2022/07/18 01:06:41;;;;;;;1.00;1.00;;;24.60;62.60;;;;;;5107561;27;44037;-70
2022/07/18 01:09:09;;;;;;;0.70;0.70;;;24.70;61.90;;;;;;5107538;27;43959;-70
2022/07/18 01:11:38;;;;;;;0.80;0.80;;;24.80;61.50;;;;;;5107497;27;43959;-70
2022/07/18 01:14:06;;;;;;;0.90;0.90;;;25.00;61.10;;;;;;5107282;27;43997;-69
2022/07/18 01:16:34;;;;;;;0.90;0.90;;;25.10;60.60;;;;;;5107710;27;44075;-69
2022/07/18 01:19:03;;;;;;;0.77;0.77;;;25.30;60.30;;;;;;5089174;27;44039;-70
2022/07/18 01:21:32;;;;;;;0.70;0.70;;;25.30;60.00;;;;;;5106875;27;43973;-70
2022/07/18 01:24:00;;;;;;;0.90;0.90;;;25.30;60.00;;;;;;5080698;27;43397;-69
2022/07/18 01:26:28;;;;;;;0.87;0.87;;;25.20;60.30;;;;;;5081090;27;44027;-70
2022/07/18 01:28:57;;;;;;;0.70;0.70;;;25.00;60.50;;;;;;5080515;27;43801;-69
2022/07/18 01:31:24;;;;;;;0.77;0.77;;;24.80;60.80;;;;;;5080685;27;43900;-69
2022/07/18 01:33:54;;;;;;;0.80;0.80;;;24.70;61.30;;;;;;5080670;27;43955;-69
2022/07/18 01:36:22;;;;;;;0.90;0.90;;;24.50;61.40;;;;;;5087508;27;43426;-69
2022/07/18 01:38:52;;;;;;;0.80;0.80;;;24.50;61.70;;;;;;5068633;27;47223;-69
2022/07/18 01:41:20;;;;;;;0.90;0.90;;;24.40;61.90;;;;;;5086553;27;43442;-69
2022/07/18 01:43:48;;;;;;;0.80;0.80;;;24.30;62.00;;;;;;5087155;27;43959;-69
2022/07/18 01:46:16;;;;;;;0.77;0.77;;;24.20;62.10;;;;;;5069112;27;44181;-71
2022/07/18 01:48:44;;;;;;;0.80;0.80;;;24.20;62.40;;;;;;5086800;27;44000;-70
2022/07/18 01:51:12;;;;;;;0.87;0.87;;;24.20;62.50;;;;;;5087144;27;43774;-69
2022/07/18 01:53:41;;;;;;;0.90;0.90;;;24.10;62.50;;;;;;5087327;27;43976;-71
2022/07/18 01:56:12;;;;;;;0.70;0.70;;;24.10;62.60;;;;;;5087607;27;43862;-71
2022/07/18 01:58:40;;;;;;;0.80;0.80;;;24.10;62.60;;;;;;5068563;27;45734;-69
2022/07/18 02:01:08;;;;;;;0.80;0.80;;;24.10;63.50;;;;;;5089169;27;43968;-71
2022/07/18 02:03:36;;;;;;;0.80;0.80;;;24.10;63.00;;;;;;5090424;27;44000;-70
2022/07/18 02:06:04;;;;;;;0.90;0.90;;;24.00;63.90;;;;;;5090958;27;43879;-69
2022/07/18 02:08:33;;;;;;;0.80;0.80;;;24.10;64.10;;;;;;5090441;27;43925;-69
2022/07/18 02:11:01;;;;;;;0.80;0.80;;;24.10;63.90;;;;;;5090343;27;43371;-69
2022/07/18 02:13:30;;;;;;;0.80;0.80;;;24.30;64.50;;;;;;5090432;27;43955;-70
2022/07/18 02:15:58;;;;;;;0.80;0.80;;;24.40;63.20;;;;;;5090550;27;43451;-69
2022/07/18 02:18:26;;;;;;;0.70;0.70;;;24.50;62.50;;;;;;5090407;27;43708;-71
2022/07/18 02:20:54;;;;;;;0.60;0.60;;;24.70;62.20;;;;;;5090314;27;43952;-70
2022/07/18 02:23:22;;;;;;;0.80;0.80;;;24.80;61.70;;;;;;5090188;27;44087;-69
2022/07/18 02:25:50;;;;;;;0.73;0.73;;;25.00;61.30;;;;;;5090681;27;43952;-70
2022/07/18 02:28:18;;;;;;;0.73;0.73;;;25.10;60.80;;;;;;5089767;27;44890;-70
2022/07/18 02:30:48;;;;;;;0.83;0.83;;;25.20;60.40;;;;;;5090117;27;43858;-70
2022/07/18 02:33:16;;;;;;;0.70;0.70;;;25.30;60.00;;;;;;5090378;27;44086;-69
2022/07/18 02:35:44;;;;;;;0.80;0.80;;;25.40;59.80;;;;;;5090319;27;43901;-69
2022/07/18 02:38:12;;;;;;;0.70;0.70;;;25.20;60.10;;;;;;5089986;27;43872;-69
2022/07/18 02:40:40;;;;;;;0.80;0.80;;;25.10;60.40;;;;;;5089582;27;44076;-69
2022/07/18 02:43:08;;;;;;;0.90;0.90;;;24.90;60.70;;;;;;5090351;27;43978;-69
2022/07/18 02:45:36;;;;;;;0.90;0.90;;;24.70;61.00;;;;;;5090131;27;43889;-70
2022/07/18 02:48:11;;;;;;;0.70;0.70;;;24.60;61.50;;;;;;5089943;27;43935;-69
2022/07/18 02:50:39;;;;;;;0.60;0.60;;;24.50;61.70;;;;;;5089907;27;43348;-70
2022/07/18 02:53:07;;;;;;;0.77;0.77;;;24.40;61.90;;;;;;5090034;27;43904;-70
2022/07/18 02:55:35;;;;;;;0.80;0.80;;;24.30;62.10;;;;;;5090041;27;43923;-69
2022/07/18 02:58:03;;;;;;;0.70;0.70;;;24.20;62.20;;;;;;5089494;27;44808;-69
2022/07/18 03:00:31;;;;;;;0.80;0.80;;;24.20;62.40;;;;;;5089806;27;43977;-69
2022/07/18 03:02:59;;;;;;;0.90;0.90;;;24.10;62.50;;;;;;5092033;27;43991;-70
2022/07/18 03:05:28;;;;;;;0.80;0.80;;;24.10;62.60;;;;;;5109499;27;43850;-69
2022/07/18 03:07:56;;;;;;;0.70;0.70;;;24.10;62.70;;;;;;5108880;27;43948;-69
2022/07/18 03:10:24;;;;;;;0.90;0.90;;;24.10;63.00;;;;;;5109154;27;43938;-69
2022/07/18 03:12:52;;;;;;;0.80;0.80;;;24.00;62.80;;;;;;5108865;27;43852;-70
2022/07/18 03:15:20;;;;;;;0.83;0.80;;;24.00;62.90;;;;;;5109457;27;43951;-70
2022/07/18 03:17:48;;;;;;;0.67;0.67;;;24.00;63.50;;;;;;5108951;27;43887;-70
2022/07/18 03:20:16;;;;;;;0.80;0.80;;;24.00;64.20;;;;;;5108882;27;43936;-69
2022/07/18 03:22:45;;;;;;;0.70;0.70;;;24.10;64.40;;;;;;5108869;27;44039;-69
2022/07/18 03:25:13;;;;;;;0.70;0.70;;;24.20;64.10;;;;;;5109186;27;43916;-69
2022/07/18 03:27:43;;;;;;;0.70;0.70;;;24.30;63.70;;;;;;5108746;27;44351;-69
2022/07/18 03:30:12;;;;;;;2.37;0.73;;;24.40;63.20;;;;;;5108916;27;44085;-70
2022/07/18 03:32:40;;;;;;;0.70;0.70;;;24.50;62.50;;;;;;5099020;27;43924;-70
2022/07/18 03:35:08;;;;;;;0.80;0.80;;;24.70;62.10;;;;;;5089758;27;43913;-70
2022/07/18 03:37:36;;;;;;;0.93;0.77;;;24.90;61.50;;;;;;5089151;27;43941;-70
2022/07/18 03:40:07;;;;;;;0.90;0.90;;;25.00;61.00;;;;;;5086686;27;43779;-70
2022/07/18 03:42:37;;;;;;;0.70;0.70;;;25.10;60.40;;;;;;5089191;27;43470;-70
2022/07/18 03:45:06;;;;;;;0.87;0.87;;;25.30;60.10;;;;;;5089511;27;43908;-70
2022/07/18 03:47:34;;;;;;;0.70;0.70;;;25.30;59.70;;;;;;5089026;27;43870;-69
2022/07/18 03:50:02;;;;;;;1.00;1.00;;;25.30;59.50;;;;;;5089286;27;43539;-69
2022/07/18 03:52:30;;;;;;;0.83;0.83;;;25.20;59.60;;;;;;5089060;27;43331;-70
2022/07/18 03:55:01;;;;;;;0.90;0.90;;;25.00;59.80;;;;;;5099944;27;43830;-70
2022/07/18 03:57:30;;;;;;;0.77;0.77;;;24.90;59.70;;;;;;5108770;27;43983;-69
2022/07/18 03:59:58;;;;;;;0.80;0.80;;;24.70;60.20;;;;;;5108552;27;43890;-69
2022/07/18 04:02:26;;;;;;;0.70;0.70;;;24.60;61.20;;;;;;5108672;27;43952;-70
2022/07/18 04:04:54;;;;;;;0.80;0.80;;;24.40;61.30;;;;;;5108707;27;43897;-69
2022/07/18 04:07:22;;;;;;;0.90;0.90;;;24.40;61.70;;;;;;5107975;27;43763;-69
2022/07/18 04:09:50;;;;;;;0.80;0.80;;;24.30;61.90;;;;;;5108228;27;43938;-70
2022/07/18 04:12:18;;;;;;;0.70;0.70;;;24.20;62.00;;;;;;5108414;27;43429;-70
2022/07/18 04:14:49;;;;;;;0.80;0.80;;;24.10;62.20;;;;;;5089978;27;43758;-70
2022/07/18 04:17:17;;;;;;;0.80;0.80;;;24.10;62.30;;;;;;5096254;27;44204;-70
2022/07/18 04:19:45;;;;;;;0.70;0.70;;;24.10;62.40;;;;;;5088302;27;43891;-69
2022/07/18 04:22:13;;;;;;;0.70;0.70;;;24.10;62.80;;;;;;5088686;27;43372;-69
2022/07/18 04:24:41;;;;;;;0.70;0.70;;;24.00;62.50;;;;;;5100333;27;43947;-69
2022/07/18 04:27:10;;;;;;;0.90;0.90;;;24.00;63.10;;;;;;5108210;27;43975;-69
2022/07/18 04:29:38;;;;;;;0.87;0.87;;;24.00;63.90;;;;;;5108305;27;44080;-70
2022/07/18 04:32:07;;;;;;;0.90;0.90;;;24.00;63.70;;;;;;5102595;27;43880;-69
2022/07/18 04:34:35;;;;;;;0.77;0.77;;;24.10;63.50;;;;;;5107543;27;43997;-69
2022/07/18 04:37:04;;;;;;;0.90;0.90;;;24.20;63.00;;;;;;5107812;27;43940;-69
2022/07/18 04:39:32;;;;;;;0.80;0.80;;;24.40;62.60;;;;;;5070084;28;44930;-69
2022/07/18 04:41:59;;;;;;;0.80;0.80;;;24.50;62.10;;;;;;5087973;27;44011;-69
2022/07/18 04:44:27;;;;;;;0.90;0.90;;;24.60;61.60;;;;;;5107209;27;43906;-69
2022/07/18 04:46:55;;;;;;;0.90;0.90;;;24.80;61.10;;;;;;5070412;28;45600;-69
2022/07/18 04:49:25;;;;;;;0.90;0.90;;;25.00;60.80;;;;;;5088129;27;43381;-69
2022/07/18 04:51:53;;;;;;;0.80;0.80;;;25.10;60.10;;;;;;5087883;27;43904;-69
2022/07/18 04:54:21;;;;;;;0.80;0.80;;;25.20;59.80;;;;;;5094349;27;43967;-69
2022/07/18 04:56:49;;;;;;;0.73;0.73;;;25.30;59.50;;;;;;5107536;27;44959;-70
2022/07/18 04:59:17;;;;;;;0.90;0.90;;;25.40;59.40;;;;;;5086591;27;44047;-69
2022/07/18 05:01:45;;;;;;;0.80;0.80;;;25.40;59.20;;;;;;5088058;27;43814;-70
2022/07/18 05:04:13;;;;;;;1.00;1.00;;;25.30;59.20;;;;;;5094167;27;44044;-69
2022/07/18 05:06:42;;;;;;;0.97;0.97;;;25.10;59.60;;;;;;5107567;27;44001;-70
2022/07/18 05:09:10;;;;;;;0.80;0.80;;;25.00;59.70;;;;;;5107764;27;43368;-70
2022/07/18 05:11:39;;;;;;;0.90;0.90;;;24.80;60.40;;;;;;5100715;27;43981;-71
2022/07/18 05:14:07;;;;;;;0.90;0.90;;;24.60;60.90;;;;;;5107935;27;44011;-69
2022/07/18 05:16:35;;;;;;;0.80;0.80;;;24.50;61.10;;;;;;5107303;27;43983;-69
2022/07/18 05:19:03;;;;;;;0.80;0.80;;;24.40;62.20;;;;;;5107323;27;43394;-70
2022/07/18 05:21:32;;;;;;;1.00;1.00;;;24.30;61.80;;;;;;5107506;27;43903;-70
2022/07/18 05:24:01;;;;;;;0.90;0.90;;;24.20;62.00;;;;;;5107528;27;44065;-69
2022/07/18 05:26:29;;;;;;;0.80;0.80;;;24.20;62.20;;;;;;5107262;27;43960;-69
2022/07/18 05:29:03;;;;;;;0.90;0.90;;;24.10;62.30;;;;;;5081699;27;43998;-70
2022/07/18 05:31:31;;;;;;;0.90;0.90;;;24.10;62.40;;;;;;5087717;27;44016;-68
2022/07/18 05:33:59;;;;;;;0.90;0.90;;;24.10;62.60;;;;;;5087959;27;43865;-70
2022/07/18 05:36:27;;;;;;;0.80;0.80;;;24.00;62.60;;;;;;5089991;27;43980;-70
2022/07/18 05:38:55;;;;;;;0.90;0.90;;;24.00;62.70;;;;;;5072544;27;43929;-70
2022/07/18 05:41:24;;;;;;;0.93;0.93;;;24.00;62.70;;;;;;5090455;27;43477;-69
2022/07/18 05:43:52;;;;;;;1.10;1.10;;;24.00;63.80;;;;;;5073392;27;44059;-70
2022/07/18 05:46:20;;;;;;;1.13;1.13;;;24.00;64.00;;;;;;5110727;27;44037;-69
2022/07/18 05:48:48;;;;;;;1.03;1.03;;;24.10;64.80;;;;;;5110755;27;44000;-70
2022/07/18 05:51:16;;;;;;;1.20;1.20;;;24.10;63.70;;;;;;5091566;27;43518;-69
2022/07/18 05:53:44;;;;;;;1.00;1.00;;;24.30;63.40;;;;;;5091138;27;44080;-69
2022/07/18 05:56:12;;;;;;;1.03;1.03;;;24.40;62.80;;;;;;5091199;27;44032;-70
2022/07/18 05:58:41;;;;;;;0.87;0.87;;;24.50;62.30;;;;;;5090877;27;43925;-70
2022/07/18 06:01:16;;;;;;;1.00;1.00;;;24.70;61.80;;;;;;5090882;27;43979;-69
2022/07/18 06:03:45;;;;;;;1.13;1.13;;;24.80;61.40;;;;;;5091023;27;43398;-69
2022/07/18 06:06:13;;;;;;;1.30;1.30;;;25.00;61.00;;;;;;5073836;27;46034;-70
2022/07/18 06:08:41;;;;;;;1.10;1.10;;;25.10;60.50;;;;;;5110408;27;43864;-69
2022/07/18 06:11:09;;;;;;;0.90;0.90;;;25.20;60.10;;;;;;5110614;27;43991;-70
2022/07/18 06:13:37;;;;;;;1.00;1.00;;;25.30;59.80;;;;;;5095506;27;43389;-70
2022/07/18 06:16:08;;;;;;;1.00;1.00;;;25.30;59.90;;;;;;5090334;27;44794;-70
2022/07/18 06:18:36;;;;;;;1.10;1.10;;;25.20;60.10;;;;;;5090473;27;44163;-69
2022/07/18 06:21:04;;;;;;;1.00;1.00;;;25.00;61.10;;;;;;5090626;27;44035;-69
2022/07/18 06:23:33;;;;;;;1.10;1.10;;;24.80;60.70;;;;;;5090830;27;44267;-70
2022/07/18 06:26:01;;;;;;;1.10;1.10;;;24.70;61.30;;;;;;5071722;27;46050;-69
2022/07/18 06:28:29;;;;;;;1.10;1.10;;;24.50;61.40;;;;;;5090361;27;43802;-69
2022/07/18 06:30:57;;;;;;;1.00;1.00;;;24.40;61.80;;;;;;5090353;27;43960;-70
2022/07/18 06:33:26;;;;;;;0.93;0.93;;;24.30;62.80;;;;;;5090658;27;43427;-70
2022/07/18 06:35:54;;;;;;;0.90;0.90;;;24.20;62.30;;;;;;5089937;27;43819;-69
2022/07/18 06:38:22;;;;;;;0.90;0.90;;;24.20;62.50;;;;;;5071473;27;45959;-70
2022/07/18 06:40:50;;;;;;;1.00;1.00;;;24.10;62.60;;;;;;5089355;27;44038;-70
2022/07/18 06:43:20;;;;;;;0.80;0.80;;;24.10;62.80;;;;;;5090389;27;43896;-70
2022/07/18 06:45:47;;;;;;;1.00;1.00;;;24.00;62.90;;;;;;5089649;27;44446;-70
2022/07/18 06:48:16;;;;;;;1.00;1.00;;;24.00;63.00;;;;;;5089812;27;44029;-70
2022/07/18 06:50:45;;;;;;;0.80;0.80;;;24.00;63.10;;;;;;5090060;27;43755;-70
2022/07/18 06:53:13;;;;;;;0.97;0.97;;;24.00;63.10;;;;;;5106789;27;43944;-69
2022/07/18 06:55:41;;;;;;;0.93;0.93;;;24.00;64.00;;;;;;5091105;27;45998;-70
2022/07/18 06:58:10;;;;;;;1.00;1.00;;;24.00;64.60;;;;;;5109965;27;43800;-69
2022/07/18 07:00:38;;;;;;;1.23;1.23;;;24.00;64.50;;;;;;5109701;27;44003;-70
2022/07/18 07:03:06;;;;;;;0.90;0.90;;;24.10;64.10;;;;;;5109726;27;44095;-69
2022/07/18 07:05:34;;;;;;;1.00;1.00;;;24.20;63.90;;;;;;5109004;27;43924;-69
2022/07/18 07:08:04;;;;;;;0.97;0.97;;;24.40;63.40;;;;;;5109305;27;43993;-70
2022/07/18 07:10:32;;;;;;;0.90;0.90;;;24.50;62.80;;;;;;5092542;27;43916;-69
2022/07/18 07:13:00;;;;;;;1.00;1.00;;;24.70;62.40;;;;;;5090078;27;43881;-69
2022/07/18 07:15:28;;;;;;;1.07;1.07;;;24.80;61.80;;;;;;5099901;27;43951;-69
2022/07/18 07:17:55;;;;;;;1.00;1.00;;;24.90;61.50;;;;;;5109109;27;43960;-69
2022/07/18 07:20:24;;;;;;;1.13;1.13;;;25.10;61.00;;;;;;5090630;27;43996;-70
2022/07/18 07:22:52;;;;;;;0.90;0.90;;;25.10;60.50;;;;;;5105937;27;43872;-70
2022/07/18 07:25:22;;;;;;;0.97;0.97;;;25.20;60.20;;;;;;5089137;27;44050;-69
2022/07/18 07:27:50;;;;;;;1.07;1.07;;;25.30;60.90;;;;;;5093479;27;43805;-69
2022/07/18 07:30:18;;;;;;;1.00;1.00;;;25.20;60.40;;;;;;5108945;27;43938;-70
2022/07/18 07:32:47;;;;;;;0.90;0.90;;;25.00;60.70;;;;;;5109446;27;43932;-69
2022/07/18 07:35:16;;;;;;;1.27;1.00;;;24.90;61.00;;;;;;5108956;27;44777;-69
2022/07/18 07:37:46;;;;;;;0.80;0.80;;;24.70;61.30;;;;;;5108994;27;43923;-69
2022/07/18 07:40:14;;;;;;;1.03;1.03;;;24.50;61.60;;;;;;5108650;27;43365;-69
2022/07/18 07:42:43;;;;;;;0.90;0.90;;;24.40;61.90;;;;;;5109634;27;44197;-69
2022/07/18 07:45:13;;;;;;;0.83;0.83;;;24.30;62.30;;;;;;5108524;27;43924;-69
2022/07/18 07:47:41;;;;;;;1.00;1.00;;;24.20;62.50;;;;;;5090842;27;43987;-70
2022/07/18 07:50:10;;;;;;;0.80;0.80;;;24.20;62.80;;;;;;5089368;27;44075;-68
2022/07/18 07:52:38;;;;;;;0.80;0.80;;;24.10;62.90;;;;;;5082857;27;44227;-70
2022/07/18 07:55:06;;;;;;;0.90;0.90;;;24.10;63.20;;;;;;5103005;27;43579;-69
2022/07/18 07:57:35;;;;;;;0.90;0.90;;;24.00;63.20;;;;;;5106831;27;43955;-70
2022/07/18 08:00:10;;;;;;;0.90;0.90;;;24.00;63.30;;;;;;5089973;27;43856;-70
2022/07/18 08:02:51;;;;;;;1.00;1.00;;;24.00;63.40;;;;;;5106363;27;43808;-69
2022/07/18 08:05:26;;;;;;;0.90;0.90;;;24.00;63.50;;;;;;5108170;27;43914;-69
2022/07/18 08:07:54;;;;;;;1.00;1.00;;;23.90;63.70;;;;;;5107963;27;44111;-70
2022/07/18 08:10:22;;;;;;;0.80;0.80;;;23.90;64.70;;;;;;5093016;27;44009;-70
2022/07/18 08:12:50;;;;;;;0.90;0.90;;;24.00;65.00;;;;;;5089150;27;43381;-69
2022/07/18 08:15:19;;;;;;;0.83;0.83;;;24.00;64.80;;;;;;5104229;27;43726;-70
2022/07/18 08:17:47;;;;;;;1.03;1.03;;;24.10;64.40;;;;;;5108214;27;43952;-70
2022/07/18 08:20:16;;;;;;;1.00;1.00;;;24.20;63.90;;;;;;5108410;27;43991;-69
2022/07/18 08:22:54;;;;;;;0.87;0.87;;;24.40;63.50;;;;;;5099341;27;44020;-71
2022/07/18 08:25:22;;;;;;;1.00;1.00;;;24.50;62.90;;;;;;5088227;27;44074;-69
2022/07/18 08:27:50;;;;;;;1.00;1.00;;;24.70;62.40;;;;;;5088466;27;43889;-69
2022/07/18 08:30:20;;;;;;;0.93;0.93;;;24.80;62.00;;;;;;5088585;27;44011;-69
2022/07/18 08:32:48;;;;;;;0.80;0.80;;;24.90;61.50;;;;;;5088540;27;43886;-70
2022/07/18 08:35:17;;;;;;;0.87;0.87;;;25.00;61.20;;;;;;5088127;27;44282;-70
2022/07/18 08:37:45;;;;;;;1.10;1.10;;;25.10;60.90;;;;;;5092481;27;43972;-69
2022/07/18 08:40:13;;;;;;;0.80;0.80;;;25.20;60.60;;;;;;5107622;27;43378;-69
2022/07/18 08:42:41;;;;;;;0.90;0.90;;;25.10;60.70;;;;;;5089911;27;43926;-71
2022/07/18 08:45:30;;;;;;;0.97;0.97;;;25.00;61.20;;;;;;5107150;27;44904;-70
2022/07/18 08:47:59;;;;;;;0.80;0.80;;;24.80;61.40;;;;;;5069763;27;45065;-69
2022/07/18 08:50:27;;;;;;;1.00;1.00;;;24.70;61.80;;;;;;5088307;27;43876;-71
2022/07/18 08:52:56;;;;;;;0.97;0.97;;;24.50;61.90;;;;;;5089063;27;43981;-69
2022/07/18 08:55:24;;;;;;;0.90;0.90;;;24.40;62.20;;;;;;5107459;27;43922;-69
2022/07/18 08:57:53;;;;;;;0.87;0.87;;;24.30;62.60;;;;;;5107555;27;43994;-69
2022/07/18 09:00:22;;;;;;;0.80;0.80;;;24.20;62.80;;;;;;5107597;27;43869;-69
2022/07/18 09:02:59;;;;;;;0.80;0.80;;;24.10;63.00;;;;;;5093680;27;43821;-70
2022/07/18 09:05:27;;;;;;;0.90;0.90;;;24.10;63.20;;;;;;5087466;27;43999;-70
2022/07/18 09:08:10;;;;;;;0.90;0.90;;;24.00;64.00;;;;;;5087626;27;43991;-70
2022/07/18 09:10:50;;;;;;;0.90;0.90;;;24.00;63.50;;;;;;5087826;27;43992;-70
2022/07/18 09:13:18;;;;;;;1.00;1.00;;;24.00;63.60;;;;;;5088072;27;43922;-69
2022/07/18 09:16:00;;;;;;;0.70;0.70;;;23.90;63.50;;;;;;5087205;27;44036;-69
2022/07/18 09:18:30;;;;;;;0.87;0.87;;;23.90;63.50;;;;;;5069229;27;44969;-70
2022/07/18 09:21:05;;;;;;;0.90;0.90;;;23.90;63.60;;;;;;5069295;27;43423;-69
2022/07/18 09:23:35;;;;;;;0.90;0.90;;;23.90;63.60;;;;;;5069726;27;43388;-70
2022/07/18 09:26:04;;;;;;;0.90;0.90;;;23.90;64.10;;;;;;5090032;27;43957;-69
2022/07/18 09:28:47;;;;;;;0.87;0.87;;;23.90;64.90;;;;;;5107348;27;43954;-69
2022/07/18 09:31:35;;;;;;;0.80;0.80;;;23.90;65.00;;;;;;5107340;27;43800;-69
2022/07/18 09:34:05;;;;;;;0.90;0.90;;;24.00;64.60;;;;;;5107546;27;43959;-69
2022/07/18 09:36:36;;;;;;;0.90;0.90;;;24.20;64.10;;;;;;5092460;27;44023;-70
2022/07/18 09:39:17;;;;;;;0.80;0.80;;;24.30;63.50;;;;;;5087497;27;43817;-70
2022/07/18 09:41:45;;;;;;;0.80;0.80;;;24.50;63.00;;;;;;5087031;27;43790;-69
2022/07/18 09:44:15;;;;;;;0.90;0.90;;;24.60;62.50;;;;;;5097727;27;43946;-69
2022/07/18 09:47:01;;;;;;;0.70;0.70;;;24.70;62.90;;;;;;5106829;27;44043;-69
2022/07/18 09:49:34;;;;;;;0.90;0.90;;;24.80;61.60;;;;;;5107054;27;43950;-70
2022/07/18 09:52:04;;;;;;;0.90;0.90;;;25.00;61.30;;;;;;5048173;27;43873;-69
2022/07/18 09:54:42;;;;;;;0.90;0.90;;;25.00;60.90;;;;;;5087209;27;43989;-68
2022/07/18 09:57:10;;;;;;;0.80;0.80;;;25.00;61.00;;;;;;5102628;27;43991;-70
2022/07/18 09:59:38;;;;;;;0.90;0.90;;;24.90;61.50;;;;;;5106977;27;43442;-70
2022/07/18 10:02:13;;;;;;;0.87;0.87;;;24.70;61.60;;;;;;5085763;27;43947;-70
2022/07/18 10:04:43;;;;;;;0.80;0.80;;;24.60;61.90;;;;;;5103782;27;43999;-69
2022/07/18 10:07:11;;;;;;;0.80;0.80;;;24.40;62.00;;;;;;5106669;27;44663;-69
2022/07/18 10:09:39;;;;;;;0.80;0.80;;;24.30;62.30;;;;;;5090461;27;44008;-69
2022/07/18 10:12:08;;;;;;;0.80;0.80;;;24.20;62.50;;;;;;5090229;27;43928;-69
2022/07/18 10:14:36;;;;;;;0.90;0.90;;;24.10;62.70;;;;;;5104180;27;43954;-69
2022/07/18 10:17:04;;;;;;;0.80;0.80;;;24.10;62.90;;;;;;5086850;27;43977;-69
2022/07/18 10:19:32;;;;;;;0.87;0.87;;;24.00;63.10;;;;;;5085427;27;45744;-68
2022/07/18 10:22:01;;;;;;;0.70;0.70;;;24.00;63.20;;;;;;5088838;27;43309;-70
2022/07/18 10:24:29;;;;;;;0.90;0.90;;;24.00;63.40;;;;;;5090761;27;44004;-69
2022/07/18 10:27:18;;;;;;;0.90;0.90;;;23.90;63.40;;;;;;5100172;27;43840;-70
2022/07/18 10:30:09;;;;;;;0.80;0.80;;;23.90;63.50;;;;;;5102794;27;43944;-70
2022/07/18 10:32:37;;;;;;;0.70;0.70;;;23.90;63.80;;;;;;5107618;27;43884;-69
2022/07/18 10:35:06;;;;;;;0.80;0.80;;;23.90;64.80;;;;;;5090764;27;43440;-70
2022/07/18 10:37:35;;;;;;;0.80;0.80;;;23.90;65.10;;;;;;5099554;27;43866;-70
2022/07/18 10:40:22;;;;;;;0.87;0.87;;;23.90;64.90;;;;;;5109267;27;43970;-69
2022/07/18 10:43:23;;;;;;;0.83;0.83;;;24.00;64.50;;;;;;5109915;27;43877;-69
2022/07/18 10:45:51;;;;;;;0.80;0.80;;;24.20;64.90;;;;;;5110114;27;43738;-69
2022/07/18 10:48:48;;;;;;;0.80;0.80;;;24.30;63.40;;;;;;5102802;27;43985;-70
2022/07/18 10:51:16;;;;;;;0.87;0.87;;;24.50;62.70;;;;;;5109692;27;44347;-70
2022/07/18 10:54:03;;;;;;;0.80;0.80;;;24.60;62.20;;;;;;5090984;27;44057;-69
2022/07/18 10:57:08;;;;;;;0.90;0.90;;;24.70;61.70;;;;;;5110026;27;43989;-71
2022/07/18 10:59:55;;;;;;;0.90;0.90;;;24.90;61.50;;;;;;5094476;27;43950;-69
2022/07/18 11:02:33;;;;;;;0.87;0.87;;;25.00;61.10;;;;;;5093602;27;43865;-69
2022/07/18 11:05:01;;;;;;;0.90;0.90;;;25.10;60.70;;;;;;5078599;28;43447;-70
2022/07/18 11:07:29;;;;;;;0.90;0.90;;;25.10;60.70;;;;;;5089895;27;43979;-69
2022/07/18 11:09:59;;;;;;;0.80;0.80;;;25.00;61.20;;;;;;5101895;27;43945;-69
2022/07/18 11:12:28;;;;;;;0.93;0.70;;;24.80;61.40;;;;;;5109270;27;43963;-70
2022/07/18 11:15:00;;;;;;;0.63;0.63;;;24.70;61.70;;;;;;5096746;27;43829;-69
2022/07/18 11:17:58;;;;;;;0.77;0.77;;;24.50;61.90;;;;;;5084482;27;43884;-70
2022/07/18 11:20:37;;;;;;;0.70;0.70;;;24.30;62.20;;;;;;5089423;27;43951;-70
2022/07/18 11:23:06;;;;;;;0.90;0.90;;;24.20;62.50;;;;;;5089376;27;43367;-69
2022/07/18 11:25:35;;;;;;;0.80;0.80;;;24.10;62.70;;;;;;5089351;27;43401;-69
2022/07/18 11:28:23;;;;;;;0.90;0.90;;;24.10;63.00;;;;;;5089644;27;44077;-70
2022/07/18 11:31:00;;;;;;;0.80;0.80;;;24.00;63.00;;;;;;5091102;27;43761;-70
2022/07/18 11:33:29;;;;;;;0.80;0.80;;;24.00;63.20;;;;;;5098532;27;43955;-69
2022/07/18 11:36:03;;;;;;;0.80;0.80;;;24.00;63.30;;;;;;5089450;27;43886;-70
2022/07/18 11:38:32;;;;;;;1.00;1.00;;;23.90;63.20;;;;;;5089609;27;43994;-70
2022/07/18 11:41:02;;;;;;;0.80;0.80;;;23.90;63.40;;;;;;5088505;27;43544;-69
2022/07/18 11:43:30;;;;;;;0.80;0.80;;;23.90;63.50;;;;;;5089029;27;43968;-69
2022/07/18 11:46:03;;;;;;;0.77;0.77;;;23.90;63.50;;;;;;5081513;27;44003;-69
2022/07/18 11:48:31;;;;;;;0.90;0.90;;;23.90;63.90;;;;;;5108968;27;43370;-70
2022/07/18 11:50:59;;;;;;;0.93;0.93;;;23.90;64.70;;;;;;5108535;27;43810;-70
2022/07/18 11:53:27;;;;;;;0.90;0.90;;;23.90;65.00;;;;;;5090007;27;43908;-70
2022/07/18 11:55:55;;;;;;;0.90;0.90;;;24.00;64.90;;;;;;5088938;27;43926;-70
2022/07/18 11:58:25;;;;;;;1.10;1.00;;;24.10;64.50;;;;;;5089462;27;43973;-69
2022/07/18 12:00:53;;;;;;;0.90;0.90;;;24.20;64.00;;;;;;5088779;27;44060;-69
2022/07/18 12:03:22;;;;;;;0.80;0.80;;;24.30;63.40;;;;;;5087468;27;43862;-70
2022/07/18 12:05:52;;;;;;;1.17;1.17;;;24.40;63.00;;;;;;5088951;27;43341;-69
2022/07/18 12:08:30;;;;;;;0.90;0.90;;;24.60;62.60;;;;;;5089058;27;43842;-71
2022/07/18 12:11:14;;;;;;;0.80;0.80;;;24.70;62.10;;;;;;5083667;27;44117;-69
2022/07/18 12:13:50;;;;;;;0.83;0.83;;;24.80;61.70;;;;;;5088838;27;43785;-69
2022/07/18 12:16:29;;;;;;;0.80;0.80;;;24.90;61.40;;;;;;5088722;27;43974;-69
2022/07/18 12:18:57;;;;;;;4.80;1.03;;;25.00;61.00;;;;;;5107683;27;44034;-70
2022/07/18 12:21:38;;;;;;;4.27;1.00;;;25.00;61.10;;;;;;5108138;27;43997;-70
2022/07/18 12:24:19;;;;;;;0.80;0.80;;;24.90;61.50;;;;;;5107919;27;43793;-69
2022/07/18 12:26:47;;;;;;;0.83;0.83;;;24.70;61.80;;;;;;5088448;27;44610;-69
2022/07/18 12:29:16;;;;;;;2.20;1.10;;;24.50;61.70;;;;;;5091109;27;43997;-70
2022/07/18 12:31:45;;;;;;;0.70;0.70;;;24.40;62.00;;;;;;5099317;27;43956;-69
2022/07/18 12:34:14;;;;;;;0.80;0.80;;;24.30;62.30;;;;;;5103619;27;44032;-69
2022/07/18 12:36:52;;;;;;;1.10;1.00;;;24.20;62.50;;;;;;5089420;27;44090;-69
2022/07/18 12:39:28;;;;;;;1.13;0.90;;;24.10;62.60;;;;;;5089671;27;44017;-69
2022/07/18 12:41:57;;;;;;;0.83;0.83;;;24.10;62.90;;;;;;5107476;27;44156;-68
2022/07/18 12:44:26;;;;;;;0.90;0.83;;;24.00;63.00;;;;;;5107052;27;43838;-69
2022/07/18 12:46:54;;;;;;;0.70;0.70;;;24.00;63.20;;;;;;5089371;27;43870;-69
2022/07/18 12:49:22;;;;;;;0.90;0.90;;;24.00;63.20;;;;;;5088577;27;43967;-69
2022/07/18 12:51:51;;;;;;;0.80;0.80;;;23.90;63.20;;;;;;5087972;27;43857;-70
2022/07/18 12:54:19;;;;;;;0.80;0.80;;;23.90;63.30;;;;;;5087971;27;43490;-70
2022/07/18 12:56:47;;;;;;;0.87;0.77;;;23.90;63.40;;;;;;5088039;27;43886;-70
2022/07/18 12:59:15;;;;;;;14.70;1.57;;;23.90;63.50;;;;;;5088668;27;44044;-70
2022/07/18 13:01:45;;;;;;;7.47;1.40;;;23.90;64.00;;;;;;5088209;27;43580;-69
2022/07/18 13:04:13;;;;;;;9.67;1.40;;;23.80;63.40;;;;;;5093468;27;43956;-70